sensor_id;sensor_type;location;lat;lon;timestamp;pressure;altitude;pressure_sealevel;temperature;humidity
66398;BME280;54877;51.504;3.894;2024-03-02T00:00:35;99749.25;;;9.19;71.98
66398;BME280;54877;51.504;3.894;2024-03-02T00:03:00;99752.06;;;9.16;71.60
66398;BME280;54877;51.504;3.894;2024-03-02T00:05:25;99740.66;;;9.15;71.83
66398;BME280;54877;51.504;3.894;2024-03-02T00:07:57;99738.22;;;9.26;71.50
66398;BME280;54877;51.504;3.894;2024-03-02T00:10:27;99747.84;;;9.27;71.28
66398;BME280;54877;51.504;3.894;2024-03-02T00:12:56;99750.28;;;9.30;71.33
66398;BME280;54877;51.504;3.894;2024-03-02T00:15:29;99756.03;;;9.23;71.55
66398;BME280;54877;51.504;3.894;2024-03-02T00:17:58;99770.56;;;9.30;71.65
66398;BME280;54877;51.504;3.894;2024-03-02T00:20:26;99760.63;;;9.33;71.31
66398;BME280;54877;51.504;3.894;2024-03-02T00:22:54;99761.31;;;9.37;71.33
66398;BME280;54877;51.504;3.894;2024-03-02T00:25:31;99761.31;;;9.37;71.25
66398;BME280;54877;51.504;3.894;2024-03-02T00:28:03;99759.22;;;9.28;71.68
66398;BME280;54877;51.504;3.894;2024-03-02T00:33:10;99776.50;;;9.33;71.75
66398;BME280;54877;51.504;3.894;2024-03-02T00:35:35;99775.00;;;9.29;71.53
66398;BME280;54877;51.504;3.894;2024-03-02T00:38:07;99787.47;;;9.27;71.60
66398;BME280;54877;51.504;3.894;2024-03-02T00:40:32;99780.28;;;9.15;71.68
66398;BME280;54877;51.504;3.894;2024-03-02T00:42:57;99770.84;;;9.25;71.46
66398;BME280;54877;51.504;3.894;2024-03-02T00:45:24;99773.09;;;9.17;71.40
66398;BME280;54877;51.504;3.894;2024-03-02T00:47:50;99778.84;;;9.10;71.64
66398;BME280;54877;51.504;3.894;2024-03-02T00:50:16;99767.53;;;9.08;71.27
66398;BME280;54877;51.504;3.894;2024-03-02T00:52:42;99779.69;;;9.10;71.37
66398;BME280;54877;51.504;3.894;2024-03-02T00:55:08;99781.78;;;9.05;71.44
66398;BME280;54877;51.504;3.894;2024-03-02T00:57:33;99786.88;;;9.08;71.75
66398;BME280;54877;51.504;3.894;2024-03-02T00:59:59;99784.31;;;9.07;71.85
66398;BME280;54877;51.504;3.894;2024-03-02T01:02:25;99785.34;;;9.04;71.82
66398;BME280;54877;51.504;3.894;2024-03-02T01:04:50;99790.94;;;9.14;71.58
66398;BME280;54877;51.504;3.894;2024-03-02T01:07:16;99792.63;;;9.15;71.34
66398;BME280;54877;51.504;3.894;2024-03-02T01:09:41;99792.53;;;9.02;72.05
66398;BME280;54877;51.504;3.894;2024-03-02T01:12:06;99791.75;;;9.14;71.72
66398;BME280;54877;51.504;3.894;2024-03-02T01:14:32;99793.72;;;8.97;71.92
66398;BME280;54877;51.504;3.894;2024-03-02T01:16:57;99799.28;;;9.06;71.83
66398;BME280;54877;51.504;3.894;2024-03-02T01:19:23;99795.97;;;8.89;72.51
66398;BME280;54877;51.504;3.894;2024-03-02T01:21:48;99798.41;;;8.77;72.93
66398;BME280;54877;51.504;3.894;2024-03-02T01:24:15;99794.09;;;8.91;72.35
66398;BME280;54877;51.504;3.894;2024-03-02T01:26:41;99795.69;;;8.93;72.32
66398;BME280;54877;51.504;3.894;2024-03-02T01:29:07;99799.22;;;9.08;72.24
66398;BME280;54877;51.504;3.894;2024-03-02T01:31:32;99805.31;;;8.94;72.40
66398;BME280;54877;51.504;3.894;2024-03-02T01:33:58;99808.19;;;9.05;72.21
66398;BME280;54877;51.504;3.894;2024-03-02T01:36:23;99795.53;;;9.10;72.27
66398;BME280;54877;51.504;3.894;2024-03-02T01:38:48;99795.25;;;9.15;71.89
66398;BME280;54877;51.504;3.894;2024-03-02T01:41:14;99796.28;;;8.98;72.11
66398;BME280;54877;51.504;3.894;2024-03-02T01:43:39;99809.50;;;9.12;71.92
66398;BME280;54877;51.504;3.894;2024-03-02T01:46:05;99811.03;;;9.16;71.65
66398;BME280;54877;51.504;3.894;2024-03-02T01:48:30;99810.44;;;8.97;72.07
66398;BME280;54877;51.504;3.894;2024-03-02T01:50:56;99818.56;;;9.08;72.04
66398;BME280;54877;51.504;3.894;2024-03-02T01:53:22;99819.13;;;9.13;71.94
66398;BME280;54877;51.504;3.894;2024-03-02T01:55:48;99816.19;;;9.18;71.82
66398;BME280;54877;51.504;3.894;2024-03-02T01:58:13;99805.34;;;9.22;71.87
66398;BME280;54877;51.504;3.894;2024-03-02T02:00:39;99804.34;;;9.25;71.77
66398;BME280;54877;51.504;3.894;2024-03-02T02:03:04;99811.88;;;9.31;71.24
66398;BME280;54877;51.504;3.894;2024-03-02T02:05:30;99809.72;;;9.37;71.21
66398;BME280;54877;51.504;3.894;2024-03-02T02:07:56;99815.66;;;9.41;71.05
66398;BME280;54877;51.504;3.894;2024-03-02T02:10:23;99814.72;;;9.42;70.94
66398;BME280;54877;51.504;3.894;2024-03-02T02:12:49;99813.66;;;9.44;70.90
66398;BME280;54877;51.504;3.894;2024-03-02T02:15:24;99813.09;;;9.39;70.50
66398;BME280;54877;51.504;3.894;2024-03-02T02:17:50;99812.84;;;9.30;70.87
66398;BME280;54877;51.504;3.894;2024-03-02T02:20:16;99819.44;;;9.37;70.40
66398;BME280;54877;51.504;3.894;2024-03-02T02:22:52;99811.78;;;9.32;70.50
66398;BME280;54877;51.504;3.894;2024-03-02T02:25:20;99816.50;;;9.27;70.17
66398;BME280;54877;51.504;3.894;2024-03-02T02:27:46;99818.75;;;9.19;70.57
66398;BME280;54877;51.504;3.894;2024-03-02T02:30:11;99817.53;;;9.25;70.62
66398;BME280;54877;51.504;3.894;2024-03-02T02:32:37;99814.97;;;9.23;70.02
66398;BME280;54877;51.504;3.894;2024-03-02T02:35:02;99821.00;;;9.25;70.19
66398;BME280;54877;51.504;3.894;2024-03-02T02:37:28;99826.69;;;9.19;70.00
66398;BME280;54877;51.504;3.894;2024-03-02T02:39:53;99818.19;;;9.28;70.18
66398;BME280;54877;51.504;3.894;2024-03-02T02:42:19;99816.22;;;9.32;69.87
66398;BME280;54877;51.504;3.894;2024-03-02T02:44:44;99815.72;;;9.25;69.63
66398;BME280;54877;51.504;3.894;2024-03-02T02:47:09;99818.75;;;9.33;69.79
66398;BME280;54877;51.504;3.894;2024-03-02T02:49:35;99810.09;;;9.31;69.95
66398;BME280;54877;51.504;3.894;2024-03-02T02:52:00;99805.66;;;9.32;69.77
66398;BME280;54877;51.504;3.894;2024-03-02T02:54:25;99813.22;;;9.38;69.79
66398;BME280;54877;51.504;3.894;2024-03-02T02:56:51;99804.22;;;9.26;69.63
66398;BME280;54877;51.504;3.894;2024-03-02T02:59:16;99799.88;;;9.25;69.48
66398;BME280;54877;51.504;3.894;2024-03-02T03:01:41;99808.19;;;9.33;69.43
66398;BME280;54877;51.504;3.894;2024-03-02T03:04:07;99813.97;;;9.40;69.08
66398;BME280;54877;51.504;3.894;2024-03-02T03:06:32;99813.97;;;9.40;69.23
66398;BME280;54877;51.504;3.894;2024-03-02T03:08:57;99814.44;;;9.47;69.06
66398;BME280;54877;51.504;3.894;2024-03-02T03:11:23;99813.41;;;9.49;69.01
66398;BME280;54877;51.504;3.894;2024-03-02T03:13:49;99813.59;;;9.46;69.05
66398;BME280;54877;51.504;3.894;2024-03-02T03:16:15;99812.66;;;9.47;69.14
66398;BME280;54877;51.504;3.894;2024-03-02T03:18:41;99818.69;;;9.49;69.12
66398;BME280;54877;51.504;3.894;2024-03-02T03:21:06;99811.69;;;9.48;69.39
66398;BME280;54877;51.504;3.894;2024-03-02T03:23:32;99816.03;;;9.35;69.83
66398;BME280;54877;51.504;3.894;2024-03-02T03:25:57;99818.19;;;9.42;69.64
66398;BME280;54877;51.504;3.894;2024-03-02T03:28:22;99816.31;;;9.44;69.48
66398;BME280;54877;51.504;3.894;2024-03-02T03:30:47;99816.91;;;9.50;69.39
66398;BME280;54877;51.504;3.894;2024-03-02T03:33:13;99815.56;;;9.42;69.11
66398;BME280;54877;51.504;3.894;2024-03-02T03:35:39;99811.97;;;9.29;68.98
66398;BME280;54877;51.504;3.894;2024-03-02T03:38:04;99809.72;;;9.37;69.11
66398;BME280;54877;51.504;3.894;2024-03-02T03:40:29;99808.41;;;9.30;69.20
66398;BME280;54877;51.504;3.894;2024-03-02T03:42:55;99810.38;;;9.27;69.29
66398;BME280;54877;51.504;3.894;2024-03-02T03:45:21;99810.25;;;9.28;68.88
66398;BME280;54877;51.504;3.894;2024-03-02T03:47:47;99817.44;;;9.26;69.16
66398;BME280;54877;51.504;3.894;2024-03-02T03:50:12;99808.28;;;9.32;68.93
66398;BME280;54877;51.504;3.894;2024-03-02T03:52:38;99818.97;;;9.30;68.64
66398;BME280;54877;51.504;3.894;2024-03-02T03:55:03;99818.56;;;9.36;69.01
66398;BME280;54877;51.504;3.894;2024-03-02T03:57:30;99806.41;;;9.34;68.39
66398;BME280;54877;51.504;3.894;2024-03-02T03:59:55;99811.78;;;9.32;68.78
66398;BME280;54877;51.504;3.894;2024-03-02T04:02:20;99809.03;;;9.34;68.22
66398;BME280;54877;51.504;3.894;2024-03-02T04:04:46;99818.56;;;9.36;68.53
66398;BME280;54877;51.504;3.894;2024-03-02T04:07:11;99810.66;;;9.36;68.36
66398;BME280;54877;51.504;3.894;2024-03-02T04:09:37;99816.72;;;9.38;68.32
66398;BME280;54877;51.504;3.894;2024-03-02T04:12:02;99817.81;;;9.34;68.08
66398;BME280;54877;51.504;3.894;2024-03-02T04:14:28;99817.25;;;9.29;68.29
66398;BME280;54877;51.504;3.894;2024-03-02T04:16:53;99814.44;;;9.32;68.58
66398;BME280;54877;51.504;3.894;2024-03-02T04:19:18;99825.66;;;9.36;68.57
66398;BME280;54877;51.504;3.894;2024-03-02T04:21:44;99829.25;;;9.35;68.57
66398;BME280;54877;51.504;3.894;2024-03-02T04:24:09;99832.44;;;9.40;68.61
66398;BME280;54877;51.504;3.894;2024-03-02T04:26:34;99830.66;;;9.40;68.31
66398;BME280;54877;51.504;3.894;2024-03-02T04:28:59;99819.44;;;9.37;68.17
66398;BME280;54877;51.504;3.894;2024-03-02T04:31:25;99828.09;;;9.39;68.34
66398;BME280;54877;51.504;3.894;2024-03-02T04:33:50;99829.63;;;9.43;68.46
66398;BME280;54877;51.504;3.894;2024-03-02T04:36:16;99831.22;;;9.45;68.37
66398;BME280;54877;51.504;3.894;2024-03-02T04:38:41;99836.13;;;9.37;68.31
66398;BME280;54877;51.504;3.894;2024-03-02T04:41:06;99844.81;;;9.39;68.22
66398;BME280;54877;51.504;3.894;2024-03-02T04:43:32;99842.16;;;9.39;68.27
66398;BME280;54877;51.504;3.894;2024-03-02T04:45:59;99856.69;;;9.32;68.27
66398;BME280;54877;51.504;3.894;2024-03-02T04:48:24;99847.38;;;9.41;68.35
66398;BME280;54877;51.504;3.894;2024-03-02T04:50:50;99848.22;;;9.41;68.39
66398;BME280;54877;51.504;3.894;2024-03-02T04:53:15;99858.97;;;9.38;68.63
66398;BME280;54877;51.504;3.894;2024-03-02T04:55:41;99860.84;;;9.36;68.43
66398;BME280;54877;51.504;3.894;2024-03-02T04:58:06;99858.13;;;9.38;68.51
66398;BME280;54877;51.504;3.894;2024-03-02T05:00:32;99861.00;;;9.33;68.42
66398;BME280;54877;51.504;3.894;2024-03-02T05:02:57;99866.69;;;9.27;68.19
66398;BME280;54877;51.504;3.894;2024-03-02T05:05:23;99869.16;;;9.44;68.17
66398;BME280;54877;51.504;3.894;2024-03-02T05:07:48;99872.00;;;9.41;67.95
66398;BME280;54877;51.504;3.894;2024-03-02T05:10:13;99872.34;;;9.35;67.20
66398;BME280;54877;51.504;3.894;2024-03-02T05:12:39;99871.03;;;9.42;67.47
66398;BME280;54877;51.504;3.894;2024-03-02T05:15:07;99878.09;;;9.42;66.85
66398;BME280;54877;51.504;3.894;2024-03-02T05:17:35;99876.13;;;9.45;66.98
66398;BME280;54877;51.504;3.894;2024-03-02T05:20:03;99868.31;;;9.44;66.70
66398;BME280;54877;51.504;3.894;2024-03-02T05:22:29;99876.50;;;9.39;66.23
66398;BME280;54877;51.504;3.894;2024-03-02T05:24:54;99873.78;;;9.41;66.83
66398;BME280;54877;51.504;3.894;2024-03-02T05:27:20;99884.72;;;9.35;66.66
66398;BME280;54877;51.504;3.894;2024-03-02T05:29:45;99881.84;;;9.24;65.93
66398;BME280;54877;51.504;3.894;2024-03-02T05:32:12;99878.88;;;9.00;66.48
66398;BME280;54877;51.504;3.894;2024-03-02T05:34:37;99879.69;;;9.16;66.45
66398;BME280;54877;51.504;3.894;2024-03-02T05:37:02;99881.75;;;9.25;66.29
66398;BME280;54877;51.504;3.894;2024-03-02T05:39:28;99880.16;;;9.23;66.14
66398;BME280;54877;51.504;3.894;2024-03-02T05:41:53;99886.56;;;9.19;66.55
66398;BME280;54877;51.504;3.894;2024-03-02T05:44:18;99881.53;;;9.14;66.49
66398;BME280;54877;51.504;3.894;2024-03-02T05:46:44;99874.41;;;9.16;66.49
66398;BME280;54877;51.504;3.894;2024-03-02T05:49:10;99875.91;;;9.20;66.08
66398;BME280;54877;51.504;3.894;2024-03-02T05:51:35;99877.06;;;9.30;66.42
66398;BME280;54877;51.504;3.894;2024-03-02T05:54:01;99884.56;;;9.22;66.58
66398;BME280;54877;51.504;3.894;2024-03-02T05:56:26;99878.47;;;9.22;66.32
66398;BME280;54877;51.504;3.894;2024-03-02T05:58:52;99873.38;;;9.19;65.78
66398;BME280;54877;51.504;3.894;2024-03-02T06:01:36;99877.25;;;9.27;65.99
66398;BME280;54877;51.504;3.894;2024-03-02T06:04:01;99877.50;;;9.23;66.15
66398;BME280;54877;51.504;3.894;2024-03-02T06:06:26;99880.72;;;9.14;65.93
66398;BME280;54877;51.504;3.894;2024-03-02T06:08:52;99889.66;;;9.11;66.54
66398;BME280;54877;51.504;3.894;2024-03-02T06:11:20;99888.44;;;8.87;66.87
66398;BME280;54877;51.504;3.894;2024-03-02T06:13:46;99889.44;;;9.00;66.96
66398;BME280;54877;51.504;3.894;2024-03-02T06:16:11;99886.41;;;9.06;66.64
66398;BME280;54877;51.504;3.894;2024-03-02T06:18:37;99890.66;;;9.09;66.56
66398;BME280;54877;51.504;3.894;2024-03-02T06:21:02;99885.03;;;8.85;66.92
66398;BME280;54877;51.504;3.894;2024-03-02T06:23:28;99892.84;;;9.02;66.43
66398;BME280;54877;51.504;3.894;2024-03-02T06:25:54;99901.22;;;8.95;66.83
66398;BME280;54877;51.504;3.894;2024-03-02T06:28:19;99899.69;;;8.91;67.04
66398;BME280;54877;51.504;3.894;2024-03-02T06:30:45;99902.03;;;8.95;66.71
66398;BME280;54877;51.504;3.894;2024-03-02T06:33:10;99903.91;;;8.93;66.66
66398;BME280;54877;51.504;3.894;2024-03-02T06:35:36;99900.25;;;8.96;66.73
66398;BME280;54877;51.504;3.894;2024-03-02T06:38:01;99910.56;;;8.84;66.86
66398;BME280;54877;51.504;3.894;2024-03-02T06:40:27;99909.91;;;8.81;67.01
66398;BME280;54877;51.504;3.894;2024-03-02T06:42:52;99908.56;;;8.74;67.53
66398;BME280;54877;51.504;3.894;2024-03-02T06:45:17;99913.38;;;8.81;67.53
66398;BME280;54877;51.504;3.894;2024-03-02T06:47:43;99913.66;;;8.77;67.64
66398;BME280;54877;51.504;3.894;2024-03-02T06:50:08;99914.41;;;8.79;67.49
66398;BME280;54877;51.504;3.894;2024-03-02T06:52:34;99907.25;;;8.81;67.57
66398;BME280;54877;51.504;3.894;2024-03-02T06:55:00;99898.75;;;8.76;67.74
66398;BME280;54877;51.504;3.894;2024-03-02T06:57:25;99909.06;;;8.80;67.60
66398;BME280;54877;51.504;3.894;2024-03-02T06:59:50;99919.63;;;8.80;67.69
66398;BME280;54877;51.504;3.894;2024-03-02T07:02:18;99912.75;;;8.78;67.84
66398;BME280;54877;51.504;3.894;2024-03-02T07:04:44;99923.03;;;8.82;68.04
66398;BME280;54877;51.504;3.894;2024-03-02T07:07:10;99936.03;;;8.85;67.98
66398;BME280;54877;51.504;3.894;2024-03-02T07:09:36;99934.25;;;8.86;67.68
66398;BME280;54877;51.504;3.894;2024-03-02T07:12:01;99930.66;;;8.87;68.07
66398;BME280;54877;51.504;3.894;2024-03-02T07:14:26;99921.81;;;8.88;68.07
66398;BME280;54877;51.504;3.894;2024-03-02T07:17:12;99925.97;;;8.92;67.84
66398;BME280;54877;51.504;3.894;2024-03-02T07:19:37;99926.94;;;8.91;67.94
66398;BME280;54877;51.504;3.894;2024-03-02T07:22:05;99927.16;;;8.86;68.29
66398;BME280;54877;51.504;3.894;2024-03-02T07:24:32;99925.16;;;8.92;68.27
66398;BME280;54877;51.504;3.894;2024-03-02T07:26:57;99911.78;;;8.95;68.33
66398;BME280;54877;51.504;3.894;2024-03-02T07:29:22;99911.59;;;8.82;68.60
66398;BME280;54877;51.504;3.894;2024-03-02T07:31:47;99907.41;;;8.94;68.09
66398;BME280;54877;51.504;3.894;2024-03-02T07:34:13;99915.16;;;8.97;68.50
66398;BME280;54877;51.504;3.894;2024-03-02T07:36:38;99916.78;;;8.99;68.13
66398;BME280;54877;51.504;3.894;2024-03-02T07:39:04;99914.53;;;9.07;68.02
66398;BME280;54877;51.504;3.894;2024-03-02T07:41:29;99905.09;;;9.03;68.01
66398;BME280;54877;51.504;3.894;2024-03-02T07:43:54;99909.09;;;9.10;67.87
66398;BME280;54877;51.504;3.894;2024-03-02T07:46:20;99915.97;;;9.13;68.00
66398;BME280;54877;51.504;3.894;2024-03-02T07:48:45;99919.38;;;9.15;67.81
66398;BME280;54877;51.504;3.894;2024-03-02T07:51:10;99911.84;;;9.23;67.64
66398;BME280;54877;51.504;3.894;2024-03-02T07:53:36;99907.25;;;9.26;67.70
66398;BME280;54877;51.504;3.894;2024-03-02T07:56:01;99906.88;;;9.32;67.68
66398;BME280;54877;51.504;3.894;2024-03-02T07:58:27;99904.81;;;9.37;67.49
66398;BME280;54877;51.504;3.894;2024-03-02T08:00:53;99907.84;;;9.45;67.06
66398;BME280;54877;51.504;3.894;2024-03-02T08:03:18;99901.16;;;9.54;66.94
66398;BME280;54877;51.504;3.894;2024-03-02T08:05:44;99903.63;;;9.57;66.61
66398;BME280;54877;51.504;3.894;2024-03-02T08:08:09;99905.03;;;9.63;66.24
66398;BME280;54877;51.504;3.894;2024-03-02T08:10:35;99905.78;;;9.65;66.11
66398;BME280;54877;51.504;3.894;2024-03-02T08:13:00;99912.69;;;9.67;65.58
66398;BME280;54877;51.504;3.894;2024-03-02T08:15:26;99913.16;;;9.74;65.85
66398;BME280;54877;51.504;3.894;2024-03-02T08:17:51;99909.19;;;9.81;65.68
66398;BME280;54877;51.504;3.894;2024-03-02T08:20:17;99905.25;;;9.88;65.80
66398;BME280;54877;51.504;3.894;2024-03-02T08:22:42;99908.63;;;9.90;65.63
66398;BME280;54877;51.504;3.894;2024-03-02T08:25:08;99913.00;;;9.91;65.63
66398;BME280;54877;51.504;3.894;2024-03-02T08:27:33;99914.66;;;9.92;65.39
66398;BME280;54877;51.504;3.894;2024-03-02T08:29:59;99921.19;;;9.86;64.85
66398;BME280;54877;51.504;3.894;2024-03-02T08:32:24;99915.22;;;9.97;65.11
66398;BME280;54877;51.504;3.894;2024-03-02T08:34:49;99915.63;;;10.05;65.38
66398;BME280;54877;51.504;3.894;2024-03-02T08:37:15;99925.91;;;10.10;65.28
66398;BME280;54877;51.504;3.894;2024-03-02T08:39:40;99922.06;;;10.15;65.14
66398;BME280;54877;51.504;3.894;2024-03-02T08:42:06;99931.50;;;10.19;64.59
66398;BME280;54877;51.504;3.894;2024-03-02T08:44:31;99930.19;;;10.26;64.47
66398;BME280;54877;51.504;3.894;2024-03-02T08:46:58;99931.13;;;10.25;64.66
66398;BME280;54877;51.504;3.894;2024-03-02T08:49:23;99934.69;;;10.38;64.61
66398;BME280;54877;51.504;3.894;2024-03-02T08:51:49;99931.78;;;10.43;64.36
66398;BME280;54877;51.504;3.894;2024-03-02T08:54:20;99926.91;;;10.49;64.14
66398;BME280;54877;51.504;3.894;2024-03-02T08:56:48;99929.84;;;10.59;63.95
66398;BME280;54877;51.504;3.894;2024-03-02T08:59:15;99942.53;;;10.54;63.47
66398;BME280;54877;51.504;3.894;2024-03-02T09:01:42;99936.00;;;10.59;63.70
66398;BME280;54877;51.504;3.894;2024-03-02T09:04:08;99944.84;;;10.73;63.27
66398;BME280;54877;51.504;3.894;2024-03-02T09:06:36;99942.84;;;10.76;62.94
66398;BME280;54877;51.504;3.894;2024-03-02T09:09:02;99952.38;;;10.79;62.78
66398;BME280;54877;51.504;3.894;2024-03-02T09:11:27;99955.59;;;10.84;62.83
66398;BME280;54877;51.504;3.894;2024-03-02T09:13:53;99953.69;;;10.86;62.63
66398;BME280;54877;51.504;3.894;2024-03-02T09:16:20;99948.56;;;10.83;62.49
66398;BME280;54877;51.504;3.894;2024-03-02T09:18:46;99947.31;;;10.88;62.34
66398;BME280;54877;51.504;3.894;2024-03-02T09:21:12;99956.66;;;10.94;62.32
66398;BME280;54877;51.504;3.894;2024-03-02T09:23:37;99958.28;;;10.96;62.16
66398;BME280;54877;51.504;3.894;2024-03-02T09:26:03;99948.88;;;11.05;61.93
66398;BME280;54877;51.504;3.894;2024-03-02T09:28:28;99951.88;;;11.13;62.03
66398;BME280;54877;51.504;3.894;2024-03-02T09:30:54;99946.72;;;11.24;61.58
66398;BME280;54877;51.504;3.894;2024-03-02T09:33:19;99948.97;;;11.30;61.56
66398;BME280;54877;51.504;3.894;2024-03-02T09:35:44;99947.69;;;11.36;61.30
66398;BME280;54877;51.504;3.894;2024-03-02T09:38:10;99947.75;;;11.48;61.15
66398;BME280;54877;51.504;3.894;2024-03-02T09:40:35;99941.78;;;11.57;60.72
66398;BME280;54877;51.504;3.894;2024-03-02T09:43:01;99936.06;;;11.63;59.83
66398;BME280;54877;51.504;3.894;2024-03-02T09:45:28;99942.50;;;11.73;60.07
66398;BME280;54877;51.504;3.894;2024-03-02T09:47:55;99926.69;;;11.72;59.42
66398;BME280;54877;51.504;3.894;2024-03-02T09:50:20;99935.69;;;11.69;59.68
66398;BME280;54877;51.504;3.894;2024-03-02T09:52:48;99927.75;;;11.69;59.46
66398;BME280;54877;51.504;3.894;2024-03-02T09:55:14;99932.28;;;11.67;59.15
66398;BME280;54877;51.504;3.894;2024-03-02T09:57:40;99923.19;;;11.71;59.34
66398;BME280;54877;51.504;3.894;2024-03-02T10:00:07;99927.66;;;11.84;59.16
66398;BME280;54877;51.504;3.894;2024-03-02T10:02:33;99924.88;;;11.98;59.12
66398;BME280;54877;51.504;3.894;2024-03-02T10:04:58;99922.53;;;12.06;59.11
66398;BME280;54877;51.504;3.894;2024-03-02T10:07:24;99928.28;;;12.00;58.78
66398;BME280;54877;51.504;3.894;2024-03-02T10:09:49;99915.75;;;12.14;58.85
66398;BME280;54877;51.504;3.894;2024-03-02T10:12:16;99921.88;;;12.27;58.73
66398;BME280;54877;51.504;3.894;2024-03-02T10:14:43;99910.81;;;12.21;58.00
66398;BME280;54877;51.504;3.894;2024-03-02T10:17:09;99911.88;;;12.31;57.70
66398;BME280;54877;51.504;3.894;2024-03-02T10:19:36;99913.47;;;12.33;58.49
66398;BME280;54877;51.504;3.894;2024-03-02T10:22:04;99907.59;;;12.41;58.20
66398;BME280;54877;51.504;3.894;2024-03-02T10:24:37;99914.78;;;12.52;57.62
66398;BME280;54877;51.504;3.894;2024-03-02T10:27:10;99910.75;;;12.59;58.12
66398;BME280;54877;51.504;3.894;2024-03-02T10:29:56;99908.75;;;12.73;57.21
66398;BME280;54877;51.504;3.894;2024-03-02T10:32:22;99903.66;;;12.70;56.93
66398;BME280;54877;51.504;3.894;2024-03-02T10:34:47;99913.53;;;12.81;56.95
66398;BME280;54877;51.504;3.894;2024-03-02T10:37:13;99900.03;;;12.84;57.00
66398;BME280;54877;51.504;3.894;2024-03-02T10:39:39;99902.38;;;12.76;56.57
66398;BME280;54877;51.504;3.894;2024-03-02T10:42:05;99903.66;;;12.70;57.00
66398;BME280;54877;51.504;3.894;2024-03-02T10:44:32;99904.28;;;12.86;56.87
66398;BME280;54877;51.504;3.894;2024-03-02T10:47:02;99902.75;;;12.95;56.55
66398;BME280;54877;51.504;3.894;2024-03-02T10:49:29;99901.66;;;12.98;56.63
66398;BME280;54877;51.504;3.894;2024-03-02T10:51:55;99898.44;;;13.05;56.07
66398;BME280;54877;51.504;3.894;2024-03-02T10:54:21;99893.91;;;13.18;55.97
66398;BME280;54877;51.504;3.894;2024-03-02T10:56:51;99886.41;;;13.12;55.60
66398;BME280;54877;51.504;3.894;2024-03-02T10:59:26;99872.88;;;13.15;55.48
66398;BME280;54877;51.504;3.894;2024-03-02T11:01:56;99875.09;;;12.98;55.59
66398;BME280;54877;51.504;3.894;2024-03-02T11:04:24;99888.16;;;13.01;55.81
66398;BME280;54877;51.504;3.894;2024-03-02T11:06:51;99887.63;;;12.95;55.71
66398;BME280;54877;51.504;3.894;2024-03-02T11:09:18;99882.78;;;12.89;55.36
66398;BME280;54877;51.504;3.894;2024-03-02T11:11:45;99882.38;;;12.83;55.27
66398;BME280;54877;51.504;3.894;2024-03-02T11:14:33;99886.19;;;12.91;55.33
66398;BME280;54877;51.504;3.894;2024-03-02T11:17:02;99888.59;;;12.94;55.30
66398;BME280;54877;51.504;3.894;2024-03-02T11:19:30;99894.19;;;13.03;55.44
66398;BME280;54877;51.504;3.894;2024-03-02T11:21:56;99889.41;;;13.08;55.46
66398;BME280;54877;51.504;3.894;2024-03-02T11:26:53;99875.66;;;13.14;55.23
66398;BME280;54877;51.504;3.894;2024-03-02T11:32:15;99879.97;;;13.38;54.74
66398;BME280;54877;51.504;3.894;2024-03-02T11:34:42;99877.81;;;13.43;54.46
66398;BME280;54877;51.504;3.894;2024-03-02T11:37:12;99867.03;;;13.45;53.92
66398;BME280;54877;51.504;3.894;2024-03-02T11:39:39;99866.06;;;13.46;53.41
66398;BME280;54877;51.504;3.894;2024-03-02T11:42:07;99864.13;;;13.48;53.50
66398;BME280;54877;51.504;3.894;2024-03-02T11:44:34;99859.09;;;13.67;54.08
66398;BME280;54877;51.504;3.894;2024-03-02T11:47:01;99856.56;;;13.77;53.92
66398;BME280;54877;51.504;3.894;2024-03-02T11:52:06;99833.72;;;13.85;53.62
66398;BME280;54877;51.504;3.894;2024-03-02T11:54:33;99842.78;;;13.83;53.34
66398;BME280;54877;51.504;3.894;2024-03-02T11:57:02;99848.72;;;13.75;52.68
66398;BME280;54877;51.504;3.894;2024-03-02T11:59:31;99850.28;;;13.78;52.77
66398;BME280;54877;51.504;3.894;2024-03-02T12:01:57;99841.22;;;13.69;53.20
66398;BME280;54877;51.504;3.894;2024-03-02T12:04:23;99833.59;;;13.65;52.64
66398;BME280;54877;51.504;3.894;2024-03-02T12:06:59;99837.09;;;13.76;53.00
66398;BME280;54877;51.504;3.894;2024-03-02T12:09:26;99842.78;;;13.83;52.93
66398;BME280;54877;51.504;3.894;2024-03-02T12:12:08;99831.06;;;13.85;52.66
66398;BME280;54877;51.504;3.894;2024-03-02T12:14:38;99827.53;;;13.96;52.65
66398;BME280;54877;51.504;3.894;2024-03-02T12:17:06;99813.03;;;14.00;52.13
66398;BME280;54877;51.504;3.894;2024-03-02T12:19:32;99818.00;;;13.93;52.42
66398;BME280;54877;51.504;3.894;2024-03-02T12:21:58;99819.41;;;13.97;51.70
66398;BME280;54877;51.504;3.894;2024-03-02T12:24:27;99823.69;;;14.00;52.15
66398;BME280;54877;51.504;3.894;2024-03-02T12:26:53;99819.69;;;13.94;52.17
66398;BME280;54877;51.504;3.894;2024-03-02T12:29:19;99813.53;;;13.94;52.61
66398;BME280;54877;51.504;3.894;2024-03-02T12:31:49;99812.06;;;13.90;52.73
66398;BME280;54877;51.504;3.894;2024-03-02T12:34:17;99818.47;;;13.98;52.53
66398;BME280;54877;51.504;3.894;2024-03-02T12:36:43;99811.56;;;13.96;51.89
66398;BME280;54877;51.504;3.894;2024-03-02T12:39:12;99812.19;;;13.88;52.38
66398;BME280;54877;51.504;3.894;2024-03-02T12:41:38;99809.28;;;13.91;52.44
66398;BME280;54877;51.504;3.894;2024-03-02T12:44:04;99813.03;;;13.89;52.45
66398;BME280;54877;51.504;3.894;2024-03-02T12:46:30;99808.06;;;13.84;53.24
66398;BME280;54877;51.504;3.894;2024-03-02T12:48:56;99808.56;;;13.78;53.16
66398;BME280;54877;51.504;3.894;2024-03-02T12:51:22;99808.44;;;13.69;53.56
66398;BME280;54877;51.504;3.894;2024-03-02T12:53:57;99817.53;;;13.77;53.57
66398;BME280;54877;51.504;3.894;2024-03-02T12:56:23;99805.66;;;13.70;53.52
66398;BME280;54877;51.504;3.894;2024-03-02T12:58:53;99804.69;;;13.71;53.58
66398;BME280;54877;51.504;3.894;2024-03-02T13:01:19;99794.78;;;13.73;53.62
66398;BME280;54877;51.504;3.894;2024-03-02T13:03:44;99799.00;;;13.76;53.91
66398;BME280;54877;51.504;3.894;2024-03-02T13:06:10;99780.28;;;13.77;54.26
66398;BME280;54877;51.504;3.894;2024-03-02T13:08:35;99791.88;;;13.76;54.78
66398;BME280;54877;51.504;3.894;2024-03-02T13:11:01;99783.66;;;13.79;55.38
66398;BME280;54877;51.504;3.894;2024-03-02T13:13:26;99787.41;;;13.77;55.98